Cusseta, GA (31805)

8:22 AM EDT on July 14, 2014 (GMT -0400)
Lawson Army Air Field (KLSF) Elev 233 ft | 32.32 °N, 84.98 °W | Change Station

Current weather conditions updated 24 minutes ago

Clear
Clear
75 °F
Feels Like 75 °F
N
0
Wind Variable Wind from North

Today is forecast to be nearly the same temperature as yesterday. Showers and thunderstorms early tonight.

Today
High -- | Low -- °F
--% Chance of Precip.
Yesterday
High -- | Low -- °F
Precip. -- in
6:42 AM 8:47 PM
Waning Gibbous, 94% visible
Pressure 30.08 in
Visibility 10.0 miles
Clouds Clear
Dew Point 73 °F
Humidity 92%
Rainfall 0.00 in
Snow Depth Not available.
UV 1 out of 12
Pollen 3.30 out of 12
PM2.5 Good
Flu Activity Sporadic
METAR KLSF 141158Z AUTO 00000KT 10SM CLR 24/23 A3008 RMK AO2 SLP186 T02400226 10253 20219 53010

More Conditions Fewer Conditions

Pressure 30.08 in
Visibility 10.0 miles
Clouds Clear
Dew Point 73 °F
Humidity 92%
Rainfall 0.00 in
Snow Depth Not available.
UV 1 out of 12
Pollen 3.30 out of 12
PM2.5 Good
Flu Activity Sporadic
METAR KLSF 141158Z AUTO 00000KT 10SM CLR 24/23 A3008 RMK AO2 SLP186 T02400226 10253 20219 53010

More Conditions Fewer Conditions

10-Day Weather Forecast

Almanac

Astronomy

Jul. 14, 2014 Rise Set
Actual Time 6:42 AM EDT 8:47 PM EDT
Civil Twilight 6:14 AM EDT 9:15 PM EDT
Nautical Twilight 5:40 AM EDT 9:48 PM EDT
Astronomical Twilight 5:04 AM EDT 10:24 PM EDT
Moon 10:30 PM EDT 9:12 AM EDT
Length of Visible Light 15h 00m
Length of Day
14h 04m
Tomorrow will be 0m 58s shorter.
Waning Gibbous, 94% of the Moon is Illuminated
Today
Waning Gibbous
Jul 18
Last Quarter
Jul 26
New
Aug 3
First Quarter
Aug 10
Full

Today's Extremes

State Highs State Lows

Community

WunderPhotos

Upload Photos

1,733,622 photos uploaded!

Nearby

Air Quality

  Air Quality AQ Index Pollutant
Yesterday Good
PM2.5
Current Good
PM2.5
Monday Good
PM2.5

Snow Depth

Station Depth Elevation
No new snow has been reported.

Earthquake Activity

City Distance Mag. Time & Date
No recent earthquake activity has been reported nearby.
Minimum magnitude displayed is 2.5.

Coastal Water Temperatures

Place Temperature
No Stations Reporting

Nearby Weather Stations

Station Location Temp. Heat Index Dew Point Humidity Wind Precip. Elev Updated Type
RAWS FORT BENNING GA, Fort Benning, GA 74 °F 72 °F 72 °F 92% WSW  at  2 mph 0.00 in / hr 466 ft 7:10 AM EDT MADIS
Lincoln Hills, Columbus, GA 76.5 °F 77 °F 74 °F 91% SSW  at  0.0 mph - / hr 433 ft 8:18 AM EDT Normal
Foxfire, Columbus, GA 76.9 °F 78 °F 74 °F 89% West  at  0.0 mph 0.00 in / hr 436 ft 8:11 AM EDT Normal
Smiths Station, AL 73.7 °F 70 °F 72 °F 95% North  at  0.0 mph 0.00 in / hr 370 ft 8:20 AM EDT Normal
Fortson GA, Columbus, GA 75.6 °F 76 °F 72 °F 87% ENE  at  0.0 mph 0.00 in / hr 528 ft 8:22 AM EDT Rapid Fire
Phenix City, Phenix City, AL 73.9 °F 71 °F 73 °F 96% ESE  at  0.0 mph 0.00 in / hr 433 ft 7:20 AM CDT Normal

Show More Stations Show Fewer Stations